Dauphin Airport, Manitoba

Past 24 Hour Conditions

This table is a summary of hourly weather conditions for the past 24 hours. This summary includes the following parameters: temperature, humidity, dew point, wind speed and direction, air pressure, visibility and/or wind chill and humidex.
Date / Time
(CDT)
Conditions Temp (°F) Humidity (%) Dew Point (°F) Wind (mph) Pressure (inches) Visibility (miles)
01 September 2014
3:00 Clear 53   90 50 WSW 8 29.7 10
2:00 Clear 56 87 52 WSW 8 29.6 10
1:00 Clear 54 96 53 SW 7 29.6 10
00:00 Clear 53   97 52 WSW 6 29.6 10
31 August 2014
23:00 Clear 56 95 54 SW 6 29.6 10
22:00 Clear 57 96 56 SW 5 29.6 10
21:00 Clear 58 96 57 SSW 3 29.6 10
20:00 Sunny 63 84 59 SE 3 29.6 10
19:00 Sunny 67 74 58 ESE 3 29.6 10
18:00 Mainly Sunny 68   75 60 ESE 6 29.6 10
17:00 Mainly Sunny 68   76 60 E 5 29.6 10
16:00 Mostly Cloudy 65 81 59 ENE 6 29.6 10
15:00 Mostly Cloudy 65 82 60 NNE 8 29.6 10
14:00 Cloudy 63 87 59 NNW 9 29.6 10
13:00 Cloudy 64 85 59 NNW 11 29.6 10
12:00 Cloudy 60 94 59 NNW 6 29.6 10
11:00 Cloudy 59 96 58 WNW 5 29.6 10
10:00 Light Rain 58 98 57 NNW 3 29.6 10
9:00 Light Rain 57 98 57 SE 2 29.6 3
8:00 Heavy Rain 57 98 56 SE 3 29.6 1
7:00 Light Rain 57 97 56 calm 29.6 8
6:00 Light Rain 57 97 56 NW 2 29.6 3
5:00 Light Rain 57 96 56 WNW 2 29.6 10
4:00 Cloudy 57 96 56 NW 2 29.6 10
3:00 Cloudy 57 97 56 N 3 29.7 10
N/A
Not available
 ↑ 
Highest temperature
 ↓ 
Lowest temperature

If you require additional historical weather information, please visit Climate Data Online.